General Aviation Weather

Text Reports

Enter one or more of the following location identifiers separated by a space:

Zip Code, Four-Character ICAO or Three-Character IATA airport codes.

METAR - Aviation Routine Weather Report
K1F0 - Ardmore Downtown, Oklahoma
Updated at 1:35 AM GMT on April 19, 2014 (8:35 PM CDT):
METAR K1F0 190135Z AUTO 00000KT 10SM 17/06 A3013 RMK AO2
TAF - Terminal Area Forecast
K1F0 - Ardmore Downtown, Oklahoma
Updated at 1:35 AM GMT on April 19, 2014 (8:35 PM CDT):
No TAF is currently available for this location.
Decoded:
No decoded TAF is available.
PIREP - Pilot Weather Report
K1F0 - Ardmore Downtown, Oklahoma
Updated at 1:35 AM GMT on April 19, 2014 (8:35 PM CDT):
No PIREP is currently available for this location.
AIRMET - Airmens Meteorological Information
K1F0 - Ardmore Downtown, Oklahoma
Updated at 1:35 AM GMT on April 19, 2014 (8:35 PM CDT):
No AIRMET is currently available for this location.
SIGMET - Significant Meteorological Information
K1F0 - Ardmore Downtown, Oklahoma
Updated at 1:35 AM GMT on April 19, 2014 (8:35 PM CDT):
No SIGMET is currently available for this location.
NOTAM - Notice to Airmen
K1F0 - Ardmore Downtown, Oklahoma
Updated at 1:35 AM GMT on April 19, 2014 (8:35 PM CDT):
No NOTAM is currently available for this location.
Forecast Area
K1F0 - Ardmore Downtown, Oklahoma
Updated at 1:35 AM GMT on April 19, 2014 (8:35 PM CDT):
No NOTAM is currently available for this location.
Aviation Weather Maps